sensor_id;sensor_type;location;lat;lon;timestamp;P1;durP1;ratioP1;P2;durP2;ratioP2
7402;SDS011;3742;48.770;11.440;2022-08-03T00:02:17;4.90;;;2.38;;
7402;SDS011;3742;48.770;11.440;2022-08-03T00:04:46;6.73;;;3.20;;
7402;SDS011;3742;48.770;11.440;2022-08-03T00:07:16;4.97;;;2.67;;
7402;SDS011;3742;48.770;11.440;2022-08-03T00:09:44;3.55;;;2.38;;
7402;SDS011;3742;48.770;11.440;2022-08-03T00:12:13;4.53;;;2.10;;
7402;SDS011;3742;48.770;11.440;2022-08-03T00:14:42;4.40;;;2.30;;
7402;SDS011;3742;48.770;11.440;2022-08-03T00:17:10;5.57;;;2.27;;
7402;SDS011;3742;48.770;11.440;2022-08-03T00:19:39;5.20;;;2.47;;
7402;SDS011;3742;48.770;11.440;2022-08-03T00:22:07;4.50;;;2.37;;
7402;SDS011;3742;48.770;11.440;2022-08-03T00:24:37;4.60;;;2.70;;
7402;SDS011;3742;48.770;11.440;2022-08-03T00:27:05;8.60;;;2.33;;
7402;SDS011;3742;48.770;11.440;2022-08-03T00:29:34;3.47;;;2.33;;
7402;SDS011;3742;48.770;11.440;2022-08-03T00:32:22;2.87;;;2.07;;
7402;SDS011;3742;48.770;11.440;2022-08-03T00:34:52;2.70;;;1.98;;
7402;SDS011;3742;48.770;11.440;2022-08-03T00:37:24;4.15;;;2.20;;
7402;SDS011;3742;48.770;11.440;2022-08-03T00:40:10;6.80;;;2.40;;
7402;SDS011;3742;48.770;11.440;2022-08-03T00:42:46;3.77;;;2.30;;
7402;SDS011;3742;48.770;11.440;2022-08-03T00:45:16;2.87;;;2.30;;
7402;SDS011;3742;48.770;11.440;2022-08-03T00:47:45;2.25;;;1.85;;
7402;SDS011;3742;48.770;11.440;2022-08-03T00:50:14;3.22;;;2.22;;
7402;SDS011;3742;48.770;11.440;2022-08-03T00:52:43;2.47;;;2.17;;
7402;SDS011;3742;48.770;11.440;2022-08-03T00:55:13;4.03;;;2.10;;
7402;SDS011;3742;48.770;11.440;2022-08-03T00:57:42;3.47;;;2.40;;
7402;SDS011;3742;48.770;11.440;2022-08-03T01:00:11;2.13;;;1.80;;
7402;SDS011;3742;48.770;11.440;2022-08-03T01:02:42;4.70;;;2.28;;
7402;SDS011;3742;48.770;11.440;2022-08-03T01:05:11;3.37;;;2.03;;
7402;SDS011;3742;48.770;11.440;2022-08-03T01:07:41;3.95;;;2.00;;
7402;SDS011;3742;48.770;11.440;2022-08-03T01:10:20;5.90;;;2.23;;
7402;SDS011;3742;48.770;11.440;2022-08-03T01:12:55;4.43;;;1.90;;
7402;SDS011;3742;48.770;11.440;2022-08-03T01:15:28;4.87;;;2.57;;
7402;SDS011;3742;48.770;11.440;2022-08-03T01:18:02;7.90;;;3.20;;
7402;SDS011;3742;48.770;11.440;2022-08-03T01:20:36;3.40;;;2.53;;
7402;SDS011;3742;48.770;11.440;2022-08-03T01:23:10;2.73;;;2.30;;
7402;SDS011;3742;48.770;11.440;2022-08-03T01:26:02;3.67;;;2.60;;
7402;SDS011;3742;48.770;11.440;2022-08-03T01:28:47;2.72;;;2.22;;
7402;SDS011;3742;48.770;11.440;2022-08-03T01:31:33;3.75;;;2.30;;
7402;SDS011;3742;48.770;11.440;2022-08-03T01:34:25;2.72;;;2.28;;
7402;SDS011;3742;48.770;11.440;2022-08-03T01:36:58;4.32;;;2.33;;
7402;SDS011;3742;48.770;11.440;2022-08-03T01:39:29;3.92;;;2.30;;
7402;SDS011;3742;48.770;11.440;2022-08-03T01:42:00;4.60;;;2.53;;
7402;SDS011;3742;48.770;11.440;2022-08-03T01:44:33;3.53;;;2.30;;
7402;SDS011;3742;48.770;11.440;2022-08-03T01:47:04;3.83;;;2.50;;
7402;SDS011;3742;48.770;11.440;2022-08-03T01:49:35;3.73;;;2.40;;
7402;SDS011;3742;48.770;11.440;2022-08-03T01:52:06;3.67;;;2.03;;
7402;SDS011;3742;48.770;11.440;2022-08-03T01:54:35;2.40;;;2.13;;
7402;SDS011;3742;48.770;11.440;2022-08-03T01:57:10;2.73;;;2.20;;
7402;SDS011;3742;48.770;11.440;2022-08-03T01:59:38;3.13;;;2.40;;
7402;SDS011;3742;48.770;11.440;2022-08-03T02:02:09;3.67;;;2.30;;
7402;SDS011;3742;48.770;11.440;2022-08-03T02:04:59;4.50;;;2.20;;
7402;SDS011;3742;48.770;11.440;2022-08-03T02:07:28;2.47;;;2.13;;
7402;SDS011;3742;48.770;11.440;2022-08-03T02:09:57;2.40;;;2.00;;
7402;SDS011;3742;48.770;11.440;2022-08-03T02:12:27;2.50;;;2.07;;
7402;SDS011;3742;48.770;11.440;2022-08-03T02:14:58;3.00;;;2.23;;
7402;SDS011;3742;48.770;11.440;2022-08-03T02:17:29;3.83;;;2.00;;
7402;SDS011;3742;48.770;11.440;2022-08-03T02:20:06;3.37;;;2.13;;
7402;SDS011;3742;48.770;11.440;2022-08-03T02:22:37;4.80;;;2.37;;
7402;SDS011;3742;48.770;11.440;2022-08-03T02:25:07;4.50;;;2.53;;
7402;SDS011;3742;48.770;11.440;2022-08-03T02:27:37;2.90;;;2.60;;
7402;SDS011;3742;48.770;11.440;2022-08-03T02:30:10;3.50;;;2.37;;
7402;SDS011;3742;48.770;11.440;2022-08-03T02:32:41;4.57;;;2.83;;
7402;SDS011;3742;48.770;11.440;2022-08-03T02:35:12;2.93;;;2.60;;
7402;SDS011;3742;48.770;11.440;2022-08-03T02:37:41;5.17;;;2.90;;
7402;SDS011;3742;48.770;11.440;2022-08-03T02:40:16;4.40;;;3.00;;
7402;SDS011;3742;48.770;11.440;2022-08-03T02:42:46;4.90;;;2.87;;
7402;SDS011;3742;48.770;11.440;2022-08-03T02:45:16;5.80;;;2.53;;
7402;SDS011;3742;48.770;11.440;2022-08-03T02:47:46;3.40;;;2.50;;
7402;SDS011;3742;48.770;11.440;2022-08-03T02:50:21;3.57;;;2.50;;
7402;SDS011;3742;48.770;11.440;2022-08-03T02:52:50;3.40;;;2.57;;
7402;SDS011;3742;48.770;11.440;2022-08-03T02:55:19;5.13;;;2.70;;
7402;SDS011;3742;48.770;11.440;2022-08-03T02:57:49;3.93;;;2.30;;
7402;SDS011;3742;48.770;11.440;2022-08-03T03:00:18;2.83;;;2.53;;
7402;SDS011;3742;48.770;11.440;2022-08-03T03:02:56;3.70;;;2.37;;
7402;SDS011;3742;48.770;11.440;2022-08-03T03:05:26;4.43;;;2.80;;
7402;SDS011;3742;48.770;11.440;2022-08-03T03:08:16;4.60;;;2.77;;
7402;SDS011;3742;48.770;11.440;2022-08-03T03:10:52;3.00;;;2.53;;
7402;SDS011;3742;48.770;11.440;2022-08-03T03:13:22;2.60;;;2.40;;
7402;SDS011;3742;48.770;11.440;2022-08-03T03:15:51;2.97;;;2.67;;
7402;SDS011;3742;48.770;11.440;2022-08-03T03:18:21;3.70;;;2.50;;
7402;SDS011;3742;48.770;11.440;2022-08-03T03:20:50;4.03;;;2.20;;
7402;SDS011;3742;48.770;11.440;2022-08-03T03:23:20;3.37;;;2.37;;
7402;SDS011;3742;48.770;11.440;2022-08-03T03:25:50;4.00;;;2.40;;
7402;SDS011;3742;48.770;11.440;2022-08-03T03:28:18;4.00;;;2.40;;
7402;SDS011;3742;48.770;11.440;2022-08-03T03:30:47;2.27;;;2.00;;
7402;SDS011;3742;48.770;11.440;2022-08-03T03:33:20;3.17;;;2.47;;
7402;SDS011;3742;48.770;11.440;2022-08-03T03:35:50;3.83;;;2.77;;
7402;SDS011;3742;48.770;11.440;2022-08-03T03:38:18;3.27;;;2.40;;
7402;SDS011;3742;48.770;11.440;2022-08-03T03:40:47;4.33;;;2.60;;
7402;SDS011;3742;48.770;11.440;2022-08-03T03:43:16;4.90;;;2.37;;
7402;SDS011;3742;48.770;11.440;2022-08-03T03:45:45;3.10;;;2.50;;
7402;SDS011;3742;48.770;11.440;2022-08-03T03:48:14;2.87;;;2.43;;
7402;SDS011;3742;48.770;11.440;2022-08-03T03:50:45;2.93;;;2.10;;
7402;SDS011;3742;48.770;11.440;2022-08-03T03:53:13;5.17;;;2.47;;
7402;SDS011;3742;48.770;11.440;2022-08-03T03:55:42;3.93;;;2.70;;
7402;SDS011;3742;48.770;11.440;2022-08-03T03:58:29;3.07;;;2.27;;
7402;SDS011;3742;48.770;11.440;2022-08-03T04:00:59;2.63;;;2.30;;
7402;SDS011;3742;48.770;11.440;2022-08-03T04:03:28;2.90;;;2.60;;
7402;SDS011;3742;48.770;11.440;2022-08-03T04:05:58;2.80;;;2.50;;
7402;SDS011;3742;48.770;11.440;2022-08-03T04:08:44;2.40;;;2.20;;
7402;SDS011;3742;48.770;11.440;2022-08-03T04:11:30;3.97;;;2.60;;
7402;SDS011;3742;48.770;11.440;2022-08-03T04:14:03;2.87;;;2.30;;
7402;SDS011;3742;48.770;11.440;2022-08-03T04:16:36;2.90;;;2.43;;
7402;SDS011;3742;48.770;11.440;2022-08-03T04:19:13;5.23;;;2.87;;
7402;SDS011;3742;48.770;11.440;2022-08-03T04:21:52;3.47;;;2.47;;
7402;SDS011;3742;48.770;11.440;2022-08-03T04:24:23;4.93;;;2.40;;
7402;SDS011;3742;48.770;11.440;2022-08-03T04:26:52;4.30;;;2.13;;
7402;SDS011;3742;48.770;11.440;2022-08-03T04:29:22;4.77;;;2.70;;
7402;SDS011;3742;48.770;11.440;2022-08-03T04:31:51;3.27;;;2.70;;
7402;SDS011;3742;48.770;11.440;2022-08-03T04:34:21;6.97;;;2.90;;
7402;SDS011;3742;48.770;11.440;2022-08-03T04:36:51;4.17;;;2.63;;
7402;SDS011;3742;48.770;11.440;2022-08-03T04:39:22;3.97;;;2.90;;
7402;SDS011;3742;48.770;11.440;2022-08-03T04:41:52;4.90;;;2.93;;
7402;SDS011;3742;48.770;11.440;2022-08-03T04:44:41;6.83;;;3.43;;
7402;SDS011;3742;48.770;11.440;2022-08-03T04:47:11;6.17;;;2.93;;
7402;SDS011;3742;48.770;11.440;2022-08-03T04:49:39;4.33;;;2.90;;
7402;SDS011;3742;48.770;11.440;2022-08-03T04:52:09;4.27;;;2.90;;
7402;SDS011;3742;48.770;11.440;2022-08-03T04:54:38;6.37;;;3.00;;
7402;SDS011;3742;48.770;11.440;2022-08-03T04:57:08;5.77;;;3.23;;
7402;SDS011;3742;48.770;11.440;2022-08-03T04:59:48;4.67;;;3.17;;
7402;SDS011;3742;48.770;11.440;2022-08-03T05:02:28;6.93;;;2.77;;
7402;SDS011;3742;48.770;11.440;2022-08-03T05:04:57;5.47;;;2.90;;
7402;SDS011;3742;48.770;11.440;2022-08-03T05:07:26;4.60;;;3.03;;
7402;SDS011;3742;48.770;11.440;2022-08-03T05:10:05;5.47;;;2.90;;
7402;SDS011;3742;48.770;11.440;2022-08-03T05:12:43;3.93;;;2.90;;
7402;SDS011;3742;48.770;11.440;2022-08-03T05:15:12;5.63;;;2.90;;
7402;SDS011;3742;48.770;11.440;2022-08-03T05:17:41;6.30;;;3.30;;
7402;SDS011;3742;48.770;11.440;2022-08-03T05:20:10;11.03;;;3.93;;
7402;SDS011;3742;48.770;11.440;2022-08-03T05:22:43;7.07;;;3.80;;
7402;SDS011;3742;48.770;11.440;2022-08-03T05:25:12;10.67;;;4.20;;
7402;SDS011;3742;48.770;11.440;2022-08-03T05:27:45;9.20;;;3.47;;
7402;SDS011;3742;48.770;11.440;2022-08-03T05:30:13;15.27;;;4.67;;
7402;SDS011;3742;48.770;11.440;2022-08-03T05:33:00;12.77;;;4.40;;
7402;SDS011;3742;48.770;11.440;2022-08-03T05:35:30;13.43;;;4.10;;
7402;SDS011;3742;48.770;11.440;2022-08-03T05:38:22;11.27;;;3.83;;
7402;SDS011;3742;48.770;11.440;2022-08-03T05:41:00;14.63;;;5.37;;
7402;SDS011;3742;48.770;11.440;2022-08-03T05:43:49;10.20;;;4.03;;
7402;SDS011;3742;48.770;11.440;2022-08-03T05:46:17;9.27;;;4.03;;
7402;SDS011;3742;48.770;11.440;2022-08-03T05:48:46;9.57;;;4.00;;
7402;SDS011;3742;48.770;11.440;2022-08-03T05:51:15;5.47;;;3.27;;
7402;SDS011;3742;48.770;11.440;2022-08-03T05:53:45;7.87;;;3.70;;
7402;SDS011;3742;48.770;11.440;2022-08-03T05:56:13;10.80;;;3.70;;
7402;SDS011;3742;48.770;11.440;2022-08-03T05:58:43;4.10;;;3.40;;
7402;SDS011;3742;48.770;11.440;2022-08-03T06:01:13;4.20;;;3.00;;
7402;SDS011;3742;48.770;11.440;2022-08-03T06:03:42;10.67;;;3.90;;
7402;SDS011;3742;48.770;11.440;2022-08-03T06:06:11;3.80;;;3.00;;
7402;SDS011;3742;48.770;11.440;2022-08-03T06:08:39;4.70;;;3.23;;
7402;SDS011;3742;48.770;11.440;2022-08-03T06:11:09;4.53;;;2.70;;
7402;SDS011;3742;48.770;11.440;2022-08-03T06:13:38;3.53;;;2.60;;
7402;SDS011;3742;48.770;11.440;2022-08-03T06:16:07;3.57;;;2.77;;
7402;SDS011;3742;48.770;11.440;2022-08-03T06:18:36;5.00;;;3.53;;
7402;SDS011;3742;48.770;11.440;2022-08-03T06:21:05;2.93;;;2.53;;
7402;SDS011;3742;48.770;11.440;2022-08-03T06:23:42;3.60;;;3.13;;
7402;SDS011;3742;48.770;11.440;2022-08-03T06:26:21;4.70;;;2.90;;
7402;SDS011;3742;48.770;11.440;2022-08-03T06:28:54;6.77;;;3.10;;
7402;SDS011;3742;48.770;11.440;2022-08-03T06:31:24;6.77;;;3.23;;
7402;SDS011;3742;48.770;11.440;2022-08-03T06:34:00;5.30;;;3.13;;
7402;SDS011;3742;48.770;11.440;2022-08-03T06:36:50;4.53;;;2.97;;
7402;SDS011;3742;48.770;11.440;2022-08-03T06:39:19;9.63;;;3.23;;
7402;SDS011;3742;48.770;11.440;2022-08-03T06:41:51;3.53;;;2.97;;
7402;SDS011;3742;48.770;11.440;2022-08-03T06:44:21;3.20;;;2.87;;
7402;SDS011;3742;48.770;11.440;2022-08-03T06:46:50;8.73;;;2.60;;
7402;SDS011;3742;48.770;11.440;2022-08-03T06:49:18;5.80;;;2.93;;
7402;SDS011;3742;48.770;11.440;2022-08-03T06:51:47;5.20;;;2.57;;
7402;SDS011;3742;48.770;11.440;2022-08-03T06:54:33;5.53;;;2.43;;
7402;SDS011;3742;48.770;11.440;2022-08-03T06:57:04;3.67;;;2.47;;
7402;SDS011;3742;48.770;11.440;2022-08-03T06:59:34;9.97;;;2.73;;
7402;SDS011;3742;48.770;11.440;2022-08-03T07:02:22;3.27;;;2.63;;
7402;SDS011;3742;48.770;11.440;2022-08-03T07:04:56;3.63;;;2.70;;
7402;SDS011;3742;48.770;11.440;2022-08-03T07:07:25;5.37;;;2.53;;
7402;SDS011;3742;48.770;11.440;2022-08-03T07:09:53;4.70;;;2.77;;
7402;SDS011;3742;48.770;11.440;2022-08-03T07:12:26;4.80;;;2.80;;
7402;SDS011;3742;48.770;11.440;2022-08-03T07:14:55;3.23;;;2.50;;
7402;SDS011;3742;48.770;11.440;2022-08-03T07:17:30;4.67;;;2.30;;
7402;SDS011;3742;48.770;11.440;2022-08-03T07:19:59;2.40;;;2.20;;
7402;SDS011;3742;48.770;11.440;2022-08-03T07:22:29;2.17;;;1.97;;
7402;SDS011;3742;48.770;11.440;2022-08-03T07:24:57;4.25;;;2.45;;
7402;SDS011;3742;48.770;11.440;2022-08-03T07:27:27;5.23;;;2.33;;
7402;SDS011;3742;48.770;11.440;2022-08-03T07:29:56;4.27;;;2.30;;
7402;SDS011;3742;48.770;11.440;2022-08-03T07:32:26;4.17;;;2.10;;
7402;SDS011;3742;48.770;11.440;2022-08-03T07:34:57;6.67;;;2.30;;
7402;SDS011;3742;48.770;11.440;2022-08-03T07:37:28;2.37;;;2.13;;
7402;SDS011;3742;48.770;11.440;2022-08-03T07:39:57;3.93;;;2.33;;
7402;SDS011;3742;48.770;11.440;2022-08-03T07:42:28;4.07;;;2.13;;
7402;SDS011;3742;48.770;11.440;2022-08-03T07:44:57;3.73;;;2.27;;
7402;SDS011;3742;48.770;11.440;2022-08-03T07:47:26;2.57;;;1.80;;
7402;SDS011;3742;48.770;11.440;2022-08-03T07:50:02;5.80;;;2.13;;
7402;SDS011;3742;48.770;11.440;2022-08-03T07:52:35;2.47;;;1.83;;
7402;SDS011;3742;48.770;11.440;2022-08-03T07:55:17;3.20;;;1.80;;
7402;SDS011;3742;48.770;11.440;2022-08-03T07:57:51;3.83;;;1.83;;
7402;SDS011;3742;48.770;11.440;2022-08-03T08:00:30;3.90;;;1.90;;
7402;SDS011;3742;48.770;11.440;2022-08-03T08:02:59;4.17;;;2.03;;
7402;SDS011;3742;48.770;11.440;2022-08-03T08:05:28;4.30;;;1.80;;
7402;SDS011;3742;48.770;11.440;2022-08-03T08:07:56;3.13;;;2.37;;
7402;SDS011;3742;48.770;11.440;2022-08-03T08:10:25;4.60;;;2.03;;
7402;SDS011;3742;48.770;11.440;2022-08-03T08:12:55;6.70;;;2.20;;
7402;SDS011;3742;48.770;11.440;2022-08-03T08:15:24;9.43;;;2.63;;
7402;SDS011;3742;48.770;11.440;2022-08-03T08:17:53;3.17;;;1.70;;
7402;SDS011;3742;48.770;11.440;2022-08-03T08:20:23;5.40;;;2.17;;
7402;SDS011;3742;48.770;11.440;2022-08-03T08:22:57;21.23;;;4.85;;
7402;SDS011;3742;48.770;11.440;2022-08-03T08:25:29;8.67;;;2.93;;
7402;SDS011;3742;48.770;11.440;2022-08-03T08:27:59;3.15;;;2.10;;
7402;SDS011;3742;48.770;11.440;2022-08-03T08:30:50;14.80;;;3.73;;
7402;SDS011;3742;48.770;11.440;2022-08-03T08:33:18;6.57;;;2.50;;
7402;SDS011;3742;48.770;11.440;2022-08-03T08:35:50;17.60;;;4.43;;
7402;SDS011;3742;48.770;11.440;2022-08-03T08:38:20;8.97;;;2.40;;
7402;SDS011;3742;48.770;11.440;2022-08-03T08:40:49;5.22;;;2.15;;
7402;SDS011;3742;48.770;11.440;2022-08-03T08:43:19;10.50;;;2.27;;
7402;SDS011;3742;48.770;11.440;2022-08-03T08:45:48;26.63;;;4.70;;
7402;SDS011;3742;48.770;11.440;2022-08-03T08:48:18;8.63;;;2.42;;
7402;SDS011;3742;48.770;11.440;2022-08-03T08:50:51;10.10;;;3.13;;
7402;SDS011;3742;48.770;11.440;2022-08-03T08:53:20;9.85;;;3.58;;
7402;SDS011;3742;48.770;11.440;2022-08-03T08:55:54;10.43;;;2.55;;
7402;SDS011;3742;48.770;11.440;2022-08-03T08:58:29;7.10;;;1.88;;
7402;SDS011;3742;48.770;11.440;2022-08-03T09:01:04;9.52;;;2.80;;
7402;SDS011;3742;48.770;11.440;2022-08-03T09:03:33;6.65;;;2.10;;
7402;SDS011;3742;48.770;11.440;2022-08-03T09:06:03;4.38;;;1.88;;
7402;SDS011;3742;48.770;11.440;2022-08-03T09:08:32;2.33;;;1.45;;
7402;SDS011;3742;48.770;11.440;2022-08-03T09:11:01;4.68;;;1.70;;
7402;SDS011;3742;48.770;11.440;2022-08-03T09:13:31;3.92;;;1.48;;
7402;SDS011;3742;48.770;11.440;2022-08-03T09:16:10;2.72;;;1.95;;
7402;SDS011;3742;48.770;11.440;2022-08-03T09:18:40;5.53;;;1.52;;
7402;SDS011;3742;48.770;11.440;2022-08-03T09:21:13;2.78;;;1.55;;
7402;SDS011;3742;48.770;11.440;2022-08-03T09:24:04;2.95;;;1.40;;
7402;SDS011;3742;48.770;11.440;2022-08-03T09:26:51;1.80;;;1.40;;
7402;SDS011;3742;48.770;11.440;2022-08-03T09:29:21;2.63;;;1.40;;
7402;SDS011;3742;48.770;11.440;2022-08-03T09:31:57;1.80;;;1.50;;
7402;SDS011;3742;48.770;11.440;2022-08-03T09:34:28;2.08;;;1.70;;
7402;SDS011;3742;48.770;11.440;2022-08-03T09:36:57;2.08;;;1.55;;
7402;SDS011;3742;48.770;11.440;2022-08-03T09:39:26;2.20;;;1.50;;
7402;SDS011;3742;48.770;11.440;2022-08-03T09:42:08;7.10;;;2.25;;
7402;SDS011;3742;48.770;11.440;2022-08-03T09:44:43;8.60;;;2.28;;
7402;SDS011;3742;48.770;11.440;2022-08-03T09:47:12;1.95;;;1.48;;
7402;SDS011;3742;48.770;11.440;2022-08-03T09:49:42;6.47;;;1.95;;
7402;SDS011;3742;48.770;11.440;2022-08-03T09:52:28;4.25;;;1.80;;
7402;SDS011;3742;48.770;11.440;2022-08-03T09:55:17;3.47;;;1.77;;
7402;SDS011;3742;48.770;11.440;2022-08-03T09:58:09;2.63;;;1.50;;
7402;SDS011;3742;48.770;11.440;2022-08-03T10:00:52;4.75;;;1.48;;
7402;SDS011;3742;48.770;11.440;2022-08-03T10:03:23;2.75;;;1.90;;
7402;SDS011;3742;48.770;11.440;2022-08-03T10:05:53;21.52;;;3.88;;
7402;SDS011;3742;48.770;11.440;2022-08-03T10:08:26;6.07;;;1.60;;
7402;SDS011;3742;48.770;11.440;2022-08-03T10:10:54;4.80;;;2.38;;
7402;SDS011;3742;48.770;11.440;2022-08-03T10:13:24;2.65;;;1.58;;
7402;SDS011;3742;48.770;11.440;2022-08-03T10:15:55;2.75;;;1.73;;
7402;SDS011;3742;48.770;11.440;2022-08-03T10:18:43;4.55;;;1.75;;
7402;SDS011;3742;48.770;11.440;2022-08-03T10:21:12;12.82;;;3.55;;
7402;SDS011;3742;48.770;11.440;2022-08-03T10:23:44;3.58;;;1.63;;
7402;SDS011;3742;48.770;11.440;2022-08-03T10:26:15;5.03;;;1.85;;
7402;SDS011;3742;48.770;11.440;2022-08-03T10:28:47;2.65;;;1.30;;
7402;SDS011;3742;48.770;11.440;2022-08-03T10:31:18;4.10;;;1.60;;
7402;SDS011;3742;48.770;11.440;2022-08-03T10:33:48;4.55;;;1.95;;
7402;SDS011;3742;48.770;11.440;2022-08-03T10:36:20;2.92;;;1.48;;
7402;SDS011;3742;48.770;11.440;2022-08-03T10:38:51;2.03;;;1.48;;
7402;SDS011;3742;48.770;11.440;2022-08-03T10:41:21;1.40;;;1.30;;
7402;SDS011;3742;48.770;11.440;2022-08-03T10:43:55;1.65;;;1.40;;
7402;SDS011;3742;48.770;11.440;2022-08-03T10:46:27;1.83;;;1.50;;
7402;SDS011;3742;48.770;11.440;2022-08-03T10:48:56;5.90;;;1.45;;
7402;SDS011;3742;48.770;11.440;2022-08-03T10:51:25;4.10;;;1.77;;
7402;SDS011;3742;48.770;11.440;2022-08-03T10:53:58;1.92;;;1.17;;
7402;SDS011;3742;48.770;11.440;2022-08-03T10:56:37;1.65;;;1.30;;
7402;SDS011;3742;48.770;11.440;2022-08-03T10:59:55;1.60;;;1.27;;
7402;SDS011;3742;48.770;11.440;2022-08-03T11:05:38;1.50;;;1.30;;
7402;SDS011;3742;48.770;11.440;2022-08-03T11:08:27;1.48;;;1.15;;
7402;SDS011;3742;48.770;11.440;2022-08-03T11:10:58;1.67;;;1.30;;
7402;SDS011;3742;48.770;11.440;2022-08-03T11:13:28;1.98;;;1.38;;
7402;SDS011;3742;48.770;11.440;2022-08-03T11:16:01;2.80;;;1.30;;
7402;SDS011;3742;48.770;11.440;2022-08-03T11:18:36;4.95;;;1.83;;
7402;SDS011;3742;48.770;11.440;2022-08-03T11:27:26;4.95;;;1.50;;
7402;SDS011;3742;48.770;11.440;2022-08-03T11:29:57;1.48;;;1.20;;
7402;SDS011;3742;48.770;11.440;2022-08-03T11:35:24;1.40;;;1.25;;
7402;SDS011;3742;48.770;11.440;2022-08-03T11:38:02;1.55;;;1.20;;
7402;SDS011;3742;48.770;11.440;2022-08-03T11:40:35;1.95;;;1.50;;
7402;SDS011;3742;48.770;11.440;2022-08-03T11:43:06;2.28;;;1.10;;
7402;SDS011;3742;48.770;11.440;2022-08-03T11:45:35;2.17;;;1.30;;
7402;SDS011;3742;48.770;11.440;2022-08-03T11:50:54;1.42;;;1.30;;
7402;SDS011;3742;48.770;11.440;2022-08-03T11:53:22;1.52;;;1.20;;
7402;SDS011;3742;48.770;11.440;2022-08-03T11:55:51;2.40;;;1.50;;
7402;SDS011;3742;48.770;11.440;2022-08-03T11:58:20;1.92;;;1.17;;
7402;SDS011;3742;48.770;11.440;2022-08-03T12:01:09;2.47;;;1.55;;
7402;SDS011;3742;48.770;11.440;2022-08-03T12:03:38;12.68;;;2.80;;
7402;SDS011;3742;48.770;11.440;2022-08-03T12:06:09;1.42;;;1.33;;
7402;SDS011;3742;48.770;11.440;2022-08-03T12:08:39;3.45;;;1.48;;
7402;SDS011;3742;48.770;11.440;2022-08-03T12:11:08;2.55;;;1.20;;
7402;SDS011;3742;48.770;11.440;2022-08-03T12:13:38;8.27;;;1.70;;
7402;SDS011;3742;48.770;11.440;2022-08-03T12:16:28;2.65;;;1.90;;
7402;SDS011;3742;48.770;11.440;2022-08-03T12:18:57;3.88;;;1.63;;
7402;SDS011;3742;48.770;11.440;2022-08-03T12:21:28;3.25;;;2.03;;
7402;SDS011;3742;48.770;11.440;2022-08-03T12:23:58;1.38;;;1.27;;
7402;SDS011;3742;48.770;11.440;2022-08-03T12:26:27;1.75;;;1.20;;
7402;SDS011;3742;48.770;11.440;2022-08-03T12:28:57;2.70;;;1.20;;
7402;SDS011;3742;48.770;11.440;2022-08-03T12:31:26;8.20;;;2.47;;
7402;SDS011;3742;48.770;11.440;2022-08-03T12:33:56;1.98;;;1.55;;
7402;SDS011;3742;48.770;11.440;2022-08-03T12:36:29;3.90;;;1.23;;
7402;SDS011;3742;48.770;11.440;2022-08-03T12:39:00;2.65;;;1.13;;
7402;SDS011;3742;48.770;11.440;2022-08-03T12:41:30;2.75;;;1.50;;
7402;SDS011;3742;48.770;11.440;2022-08-03T12:44:01;1.67;;;1.08;;
7402;SDS011;3742;48.770;11.440;2022-08-03T12:46:31;1.73;;;1.40;;
7402;SDS011;3742;48.770;11.440;2022-08-03T12:49:02;2.47;;;1.27;;
7402;SDS011;3742;48.770;11.440;2022-08-03T12:51:34;2.90;;;1.23;;
7402;SDS011;3742;48.770;11.440;2022-08-03T12:54:04;4.80;;;2.45;;
7402;SDS011;3742;48.770;11.440;2022-08-03T12:56:33;1.98;;;1.75;;
7402;SDS011;3742;48.770;11.440;2022-08-03T13:02:01;8.30;;;1.90;;
7402;SDS011;3742;48.770;11.440;2022-08-03T13:04:35;2.75;;;1.50;;
7402;SDS011;3742;48.770;11.440;2022-08-03T13:07:05;5.88;;;1.80;;
7402;SDS011;3742;48.770;11.440;2022-08-03T13:09:40;1.42;;;1.10;;
7402;SDS011;3742;48.770;11.440;2022-08-03T13:12:10;3.55;;;1.75;;
7402;SDS011;3742;48.770;11.440;2022-08-03T13:14:40;17.52;;;3.70;;
7402;SDS011;3742;48.770;11.440;2022-08-03T13:17:09;10.05;;;2.97;;
7402;SDS011;3742;48.770;11.440;2022-08-03T13:19:39;11.10;;;2.65;;
7402;SDS011;3742;48.770;11.440;2022-08-03T13:22:12;1.88;;;1.38;;
7402;SDS011;3742;48.770;11.440;2022-08-03T13:24:42;3.95;;;2.03;;
7402;SDS011;3742;48.770;11.440;2022-08-03T13:27:12;14.90;;;3.72;;
7402;SDS011;3742;48.770;11.440;2022-08-03T13:30:01;11.80;;;1.98;;
7402;SDS011;3742;48.770;11.440;2022-08-03T13:32:30;2.83;;;1.52;;
7402;SDS011;3742;48.770;11.440;2022-08-03T13:34:59;1.55;;;1.30;;
7402;SDS011;3742;48.770;11.440;2022-08-03T13:37:30;2.00;;;1.50;;
7402;SDS011;3742;48.770;11.440;2022-08-03T13:39:59;1.75;;;1.30;;
7402;SDS011;3742;48.770;11.440;2022-08-03T13:42:32;14.18;;;3.90;;
7402;SDS011;3742;48.770;11.440;2022-08-03T13:45:01;2.72;;;1.40;;
7402;SDS011;3742;48.770;11.440;2022-08-03T13:47:31;1.48;;;1.15;;
7402;SDS011;3742;48.770;11.440;2022-08-03T13:50:00;5.55;;;1.35;;
7402;SDS011;3742;48.770;11.440;2022-08-03T13:52:33;3.63;;;1.75;;
7402;SDS011;3742;48.770;11.440;2022-08-03T13:55:02;8.88;;;2.15;;
7402;SDS011;3742;48.770;11.440;2022-08-03T13:57:32;12.65;;;2.33;;
7402;SDS011;3742;48.770;11.440;2022-08-03T14:00:21;7.55;;;2.47;;
7402;SDS011;3742;48.770;11.440;2022-08-03T14:02:56;2.15;;;1.45;;
7402;SDS011;3742;48.770;11.440;2022-08-03T14:05:35;3.95;;;1.30;;
7402;SDS011;3742;48.770;11.440;2022-08-03T14:08:06;2.45;;;1.52;;
7402;SDS011;3742;48.770;11.440;2022-08-03T14:10:36;3.47;;;1.30;;
7402;SDS011;3742;48.770;11.440;2022-08-03T14:13:05;1.80;;;1.33;;
7402;SDS011;3742;48.770;11.440;2022-08-03T14:15:34;2.08;;;1.40;;
7402;SDS011;3742;48.770;11.440;2022-08-03T14:18:05;1.50;;;1.30;;
7402;SDS011;3742;48.770;11.440;2022-08-03T14:20:42;3.50;;;1.40;;
7402;SDS011;3742;48.770;11.440;2022-08-03T14:23:21;2.10;;;1.48;;
7402;SDS011;3742;48.770;11.440;2022-08-03T14:25:50;1.50;;;1.40;;
7402;SDS011;3742;48.770;11.440;2022-08-03T14:28:19;6.25;;;1.30;;
7402;SDS011;3742;48.770;11.440;2022-08-03T14:30:49;4.28;;;1.30;;
7402;SDS011;3742;48.770;11.440;2022-08-03T14:33:18;1.65;;;1.42;;
7402;SDS011;3742;48.770;11.440;2022-08-03T14:35:47;3.72;;;1.40;;
7402;SDS011;3742;48.770;11.440;2022-08-03T14:38:16;1.63;;;1.30;;
7402;SDS011;3742;48.770;11.440;2022-08-03T14:40:46;2.45;;;0.90;;
7402;SDS011;3742;48.770;11.440;2022-08-03T14:43:15;2.95;;;1.55;;
7402;SDS011;3742;48.770;11.440;2022-08-03T14:45:47;3.67;;;1.70;;
7402;SDS011;3742;48.770;11.440;2022-08-03T14:48:18;3.22;;;1.45;;
7402;SDS011;3742;48.770;11.440;2022-08-03T14:51:07;8.20;;;2.92;;
7402;SDS011;3742;48.770;11.440;2022-08-03T14:53:38;1.60;;;1.30;;
7402;SDS011;3742;48.770;11.440;2022-08-03T14:56:24;2.22;;;1.50;;
7402;SDS011;3742;48.770;11.440;2022-08-03T14:58:52;8.60;;;1.63;;
7402;SDS011;3742;48.770;11.440;2022-08-03T15:01:21;1.35;;;1.10;;
7402;SDS011;3742;48.770;11.440;2022-08-03T15:04:10;1.95;;;1.50;;
7402;SDS011;3742;48.770;11.440;2022-08-03T15:06:38;3.65;;;1.67;;
7402;SDS011;3742;48.770;11.440;2022-08-03T15:09:09;2.75;;;1.30;;
7402;SDS011;3742;48.770;11.440;2022-08-03T15:11:50;1.83;;;1.58;;
7402;SDS011;3742;48.770;11.440;2022-08-03T15:14:19;1.40;;;1.20;;
7402;SDS011;3742;48.770;11.440;2022-08-03T15:16:58;1.40;;;1.30;;
7402;SDS011;3742;48.770;11.440;2022-08-03T15:19:27;3.05;;;1.60;;
7402;SDS011;3742;48.770;11.440;2022-08-03T15:22:16;1.20;;;1.10;;
7402;SDS011;3742;48.770;11.440;2022-08-03T15:24:51;1.52;;;1.30;;
7402;SDS011;3742;48.770;11.440;2022-08-03T15:27:21;4.07;;;1.30;;
7402;SDS011;3742;48.770;11.440;2022-08-03T15:29:50;1.45;;;1.20;;
7402;SDS011;3742;48.770;11.440;2022-08-03T15:32:32;1.80;;;1.30;;
7402;SDS011;3742;48.770;11.440;2022-08-03T15:35:01;2.83;;;1.25;;
7402;SDS011;3742;48.770;11.440;2022-08-03T15:37:29;3.05;;;1.30;;
7402;SDS011;3742;48.770;11.440;2022-08-03T15:39:58;3.05;;;1.33;;
7402;SDS011;3742;48.770;11.440;2022-08-03T15:42:29;1.25;;;1.10;;
7402;SDS011;3742;48.770;11.440;2022-08-03T15:44:57;1.50;;;1.40;;
7402;SDS011;3742;48.770;11.440;2022-08-03T15:47:26;1.80;;;1.48;;
7402;SDS011;3742;48.770;11.440;2022-08-03T15:49:54;1.50;;;1.38;;
7402;SDS011;3742;48.770;11.440;2022-08-03T15:52:23;2.78;;;1.30;;